Terminal Aerodrome Forecast
Issued by NWS

Home | Current Version | Previous Version | Text Only | Print | Product List | Glossary Off
Versions: 1 2 3 4 5 6 7 8 9 10 11 12 13 14 15 16 17

936
FTUS43 KGRB 242335
TAFCWA
TAF
KCWA 242335Z 2500/2524 07005KT P6SM OVC020
      TEMPO 2500/2504 SCT009 BKN015
     FM250400 05005KT P6SM BKN015
     FM250800 03004KT 5SM BR SCT015 BKN035
     FM252200 VRB03KT P6SM SCT070 BKN150=

USA.gov is the U.S. government's official web portal to all federal, state and local government web resources and services.